createdAt,value
2019-03-28T00:24:32.415Z,1.97
2019-03-28T00:27:02.581Z,1.80
2019-03-28T00:29:32.891Z,2.07
2019-03-28T00:32:03.248Z,2.37
2019-03-28T00:34:33.706Z,2.50
2019-03-28T00:37:04.025Z,2.70
2019-03-28T00:39:34.294Z,2.53
2019-03-28T00:42:04.556Z,2.77
2019-03-28T00:44:34.834Z,2.40
2019-03-28T00:47:05.175Z,2.83
2019-03-28T00:49:35.598Z,2.47
2019-03-28T00:52:05.898Z,2.93
2019-03-28T00:54:36.154Z,2.43
2019-03-28T00:57:06.521Z,3.13
2019-03-28T00:59:36.839Z,3.20
2019-03-28T01:02:07.526Z,3.80
2019-03-28T01:04:38.019Z,3.40
2019-03-28T01:07:08.396Z,4.30
2019-03-28T01:09:38.859Z,4.00
2019-03-28T01:12:09.083Z,3.90
2019-03-28T01:14:39.373Z,4.73
2019-03-28T01:17:09.603Z,4.47
2019-03-28T01:19:39.677Z,4.67
2019-03-28T01:22:09.883Z,4.47
2019-03-28T02:25:15.608Z,5.17
2019-03-28T02:27:45.981Z,6.03
2019-03-28T02:30:17.746Z,6.20
2019-03-28T02:32:48.225Z,5.87
2019-03-28T02:35:18.585Z,6.17
2019-03-28T02:37:48.958Z,6.80
2019-03-28T02:40:19.299Z,7.20
2019-03-28T02:42:49.873Z,6.90
2019-03-28T02:45:20.374Z,6.23
2019-03-28T02:47:52.035Z,6.13
2019-03-28T02:50:22.370Z,6.83
2019-03-28T02:52:52.792Z,7.07
2019-03-28T02:55:23.813Z,6.17
2019-03-28T02:57:54.159Z,6.33
2019-03-28T03:00:24.415Z,5.60
2019-03-28T03:02:54.852Z,6.60
2019-03-28T03:05:25.146Z,5.40
2019-03-28T03:07:55.331Z,5.40
2019-03-28T03:10:25.527Z,5.80
2019-03-28T03:12:55.852Z,5.47
2019-03-28T03:15:26.308Z,6.10
2019-03-28T03:17:56.658Z,5.67
2019-03-28T03:20:26.835Z,5.90
2019-03-28T03:22:57.057Z,6.27
2019-03-28T04:18:05.782Z,5.63
2019-03-28T04:20:36.358Z,6.30
2019-03-28T04:23:06.623Z,5.73
2019-03-28T04:25:36.997Z,5.93
2019-03-28T04:28:07.336Z,5.40
2019-03-28T04:30:37.685Z,5.70
2019-03-28T04:33:08.039Z,5.93
2019-03-28T04:35:38.303Z,6.10
2019-03-28T04:38:08.644Z,5.60
2019-03-28T04:40:39.018Z,5.00
2019-03-28T04:43:09.299Z,4.93
2019-03-28T04:45:39.438Z,5.27
2019-03-28T04:48:10.910Z,6.13
2019-03-28T04:50:41.285Z,6.27
2019-03-28T04:53:11.755Z,5.57
2019-03-28T04:55:42.055Z,5.33
2019-03-28T04:58:12.246Z,5.77
2019-03-28T05:00:42.397Z,4.77
2019-03-28T05:03:12.701Z,5.00
2019-03-28T05:05:43.014Z,5.40
2019-03-28T05:08:13.330Z,5.20
2019-03-28T05:10:44.898Z,4.90
2019-03-28T05:13:15.342Z,4.60
2019-03-28T05:15:45.793Z,4.57
2019-03-28T05:18:16.165Z,4.90
2019-03-28T05:20:46.550Z,4.33
2019-03-28T05:23:16.715Z,4.47
2019-03-28T06:18:57.587Z,3.13
2019-03-28T06:21:27.851Z,3.53
2019-03-28T06:23:58.213Z,3.07
2019-03-28T06:26:29.539Z,3.30
2019-03-28T06:28:59.820Z,3.43
2019-03-28T06:31:30.137Z,3.23
2019-03-28T06:34:00.807Z,2.80
2019-03-28T06:36:31.012Z,2.90
2019-03-28T06:39:01.166Z,2.80
2019-03-28T06:41:31.499Z,2.83
2019-03-28T06:44:01.828Z,3.27
2019-03-28T06:46:32.095Z,2.90
2019-03-28T06:49:02.676Z,2.87
2019-03-28T06:51:32.976Z,2.50
2019-03-28T06:54:04.425Z,2.67
2019-03-28T06:56:35.058Z,2.53
2019-03-28T06:59:05.364Z,2.13
2019-03-28T07:01:35.693Z,2.40
2019-03-28T07:04:06.130Z,2.40
2019-03-28T07:06:36.332Z,2.43
2019-03-28T07:09:09.017Z,2.73
2019-03-28T07:11:39.359Z,2.73
2019-03-28T07:14:09.745Z,2.33
2019-03-28T07:16:40.317Z,2.47
2019-03-28T07:19:10.704Z,2.77
2019-03-28T07:21:42.227Z,2.60
2019-03-28T08:24:09.249Z,2.90
2019-03-28T08:26:39.538Z,2.80
2019-03-28T08:29:09.810Z,2.77
2019-03-28T08:31:42.417Z,2.37
2019-03-28T08:34:12.680Z,1.93
2019-03-28T08:36:43.278Z,2.10
2019-03-28T08:39:13.516Z,2.80
2019-03-28T08:41:43.832Z,2.37
2019-03-28T08:44:14.366Z,2.60
2019-03-28T08:46:44.547Z,2.17
2019-03-28T08:49:14.970Z,2.80
2019-03-28T08:51:45.236Z,2.47
2019-03-28T08:54:15.554Z,3.47
2019-03-28T08:56:45.834Z,2.53
2019-03-28T08:59:16.188Z,2.80
2019-03-28T09:01:46.432Z,4.60
2019-03-28T09:04:17.957Z,12.20
2019-03-28T09:06:49.351Z,3.00
2019-03-28T09:09:21.285Z,4.00
2019-03-28T09:11:51.940Z,6.10
2019-03-28T09:14:22.329Z,7.43
2019-03-28T09:16:52.558Z,10.73
2019-03-28T09:19:22.920Z,6.60
2019-03-28T09:21:53.111Z,11.53
2019-03-28T10:25:57.649Z,9.73
2019-03-28T10:28:28.024Z,8.50
2019-03-28T10:30:58.609Z,8.00
2019-03-28T10:33:29.026Z,7.87
2019-03-28T10:35:59.267Z,9.17
2019-03-28T10:38:29.585Z,4.60
2019-03-28T10:40:59.962Z,2.97
2019-03-28T10:43:30.252Z,3.23
2019-03-28T10:46:00.777Z,3.70
2019-03-28T10:48:31.179Z,3.03
2019-03-28T10:51:01.453Z,2.70
2019-03-28T10:53:31.695Z,3.30
2019-03-28T10:56:01.916Z,3.30
2019-03-28T10:58:34.867Z,3.07
2019-03-28T11:01:05.543Z,2.97
2019-03-28T11:03:36.068Z,3.03
2019-03-28T11:06:06.778Z,2.93
2019-03-28T11:08:37.119Z,2.73
2019-03-28T11:11:07.355Z,3.27
2019-03-28T11:13:39.028Z,3.20
2019-03-28T11:16:09.348Z,2.87
2019-03-28T11:18:39.735Z,3.70
2019-03-28T11:21:10.455Z,3.53
2019-03-28T12:09:39.063Z,2.97
2019-03-28T12:12:09.471Z,3.00
2019-03-28T12:14:39.743Z,3.47
2019-03-28T12:17:10.224Z,3.47
2019-03-28T12:19:40.794Z,4.17
2019-03-28T12:22:11.279Z,3.10
2019-03-28T12:24:41.482Z,3.00
2019-03-28T12:27:11.841Z,3.40
2019-03-28T12:29:43.338Z,3.07
2019-03-28T12:32:14.665Z,3.20
2019-03-28T12:34:45.075Z,3.50
2019-03-28T12:37:15.540Z,3.07
2019-03-28T12:39:46.593Z,3.00
2019-03-28T12:42:17.165Z,2.73
2019-03-28T12:44:56.859Z,2.90
2019-03-28T12:47:19.296Z,3.17
2019-03-28T12:49:49.787Z,2.50
2019-03-28T12:52:20.024Z,2.93
2019-03-28T12:54:50.301Z,3.10
2019-03-28T12:57:21.380Z,2.83
2019-03-28T12:59:53.621Z,2.93
2019-03-28T13:02:31.364Z,3.10
2019-03-28T13:04:55.739Z,2.67
2019-03-28T13:07:26.065Z,2.93
2019-03-28T13:09:56.539Z,3.17
2019-03-28T13:12:27.026Z,2.17
2019-03-28T13:14:57.193Z,2.83
2019-03-28T13:17:27.619Z,3.30
2019-03-28T13:19:57.902Z,3.50
2019-03-28T13:22:28.644Z,3.13
2019-03-28T14:23:48.203Z,3.00
2019-03-28T14:26:18.418Z,2.73
2019-03-28T14:28:49.013Z,2.70
2019-03-28T14:31:19.387Z,2.77
2019-03-28T14:33:49.601Z,3.07
2019-03-28T14:36:19.998Z,3.03
2019-03-28T14:38:50.281Z,3.13
2019-03-28T14:41:20.717Z,10.00
2019-03-28T14:43:50.995Z,5.43
2019-03-28T14:46:21.358Z,11.00
2019-03-28T14:48:51.682Z,16.27
2019-03-28T14:51:22.183Z,17.70
2019-03-28T14:53:52.528Z,6.87
2019-03-28T14:56:23.363Z,4.67
2019-03-28T14:58:55.565Z,8.87
2019-03-28T15:01:26.911Z,5.03
2019-03-28T15:03:57.270Z,3.20
2019-03-28T15:06:27.716Z,3.63
2019-03-28T15:08:57.891Z,6.53
2019-03-28T15:11:28.288Z,6.47
2019-03-28T15:13:58.546Z,5.53
2019-03-28T15:16:28.896Z,4.53
2019-03-28T15:18:59.208Z,4.00
2019-03-28T15:21:29.550Z,3.83
2019-03-28T16:25:58.494Z,10.90
2019-03-28T16:28:28.850Z,10.37
2019-03-28T16:31:00.083Z,9.60
2019-03-28T16:33:30.869Z,5.27
2019-03-28T16:36:01.355Z,2.97
2019-03-28T16:38:32.992Z,4.30
2019-03-28T16:41:03.390Z,3.63
2019-03-28T16:43:34.237Z,3.73
2019-03-28T16:46:07.654Z,3.97
2019-03-28T16:48:36.870Z,4.40
2019-03-28T16:51:07.091Z,3.70
2019-03-28T16:53:37.631Z,3.90
2019-03-28T16:56:08.721Z,3.83
2019-03-28T16:58:40.422Z,3.83
2019-03-28T17:01:10.745Z,4.80
2019-03-28T17:03:41.190Z,4.90
2019-03-28T17:06:12.084Z,6.63
2019-03-28T17:08:44.534Z,5.93
2019-03-28T17:11:14.776Z,5.17
2019-03-28T17:13:46.393Z,4.53
2019-03-28T17:16:17.042Z,5.47
2019-03-28T17:18:47.242Z,4.47
2019-03-28T17:21:18.755Z,4.13
2019-03-28T18:23:50.595Z,3.20
2019-03-28T18:26:22.191Z,2.80
2019-03-28T18:28:52.864Z,3.10
2019-03-28T18:31:23.159Z,2.70
2019-03-28T18:33:53.561Z,2.80
2019-03-28T18:36:23.860Z,2.90
2019-03-28T18:38:54.195Z,2.93
2019-03-28T18:41:24.627Z,3.40
2019-03-28T18:43:54.856Z,3.07
2019-03-28T18:46:26.092Z,3.60
2019-03-28T18:48:56.704Z,3.30
2019-03-28T18:51:26.869Z,3.67
2019-03-28T18:53:58.429Z,2.93
2019-03-28T18:56:28.642Z,3.10
2019-03-28T18:58:58.812Z,2.87
2019-03-28T19:01:29.194Z,3.67
2019-03-28T19:03:59.299Z,2.63
2019-03-28T19:06:29.741Z,3.03
2019-03-28T19:08:59.998Z,3.20
2019-03-28T19:11:30.259Z,3.20
2019-03-28T19:14:00.566Z,3.10
2019-03-28T19:16:31.191Z,3.47
2019-03-28T19:19:01.786Z,3.93
2019-03-28T19:21:32.005Z,3.40
2019-03-28T20:23:35.472Z,7.30
2019-03-28T20:26:04.560Z,7.13
2019-03-28T20:28:34.726Z,5.67
2019-03-28T20:31:05.242Z,5.77
2019-03-28T20:33:35.633Z,6.27
2019-03-28T20:36:30.280Z,5.83
2019-03-28T20:38:38.372Z,5.40
2019-03-28T20:41:08.770Z,6.83
2019-03-28T20:43:38.945Z,6.13
2019-03-28T20:46:09.306Z,5.87
2019-03-28T20:48:39.929Z,4.97
2019-03-28T20:51:10.170Z,6.03
2019-03-28T20:53:40.543Z,5.47
2019-03-28T20:56:11.127Z,9.37
2019-03-28T20:58:41.358Z,8.87
2019-03-28T21:01:11.843Z,5.50
2019-03-28T21:03:42.227Z,5.20
2019-03-28T21:06:15.465Z,5.10
2019-03-28T21:08:44.807Z,5.27
2019-03-28T21:11:15.260Z,4.10
2019-03-28T21:13:45.539Z,5.13
2019-03-28T21:16:15.892Z,4.40
2019-03-28T21:18:46.359Z,3.63
2019-03-28T21:21:17.027Z,3.20
2019-03-28T21:34:11.809Z,3.03
2019-03-28T21:36:42.425Z,3.03
2019-03-28T21:39:12.608Z,3.40
2019-03-28T21:41:43.225Z,3.40
2019-03-28T21:44:16.277Z,3.40
2019-03-28T21:46:46.715Z,3.37
2019-03-28T21:49:16.913Z,3.50
2019-03-28T21:51:47.787Z,3.33
2019-03-28T21:54:18.019Z,3.20
2019-03-28T21:56:49.844Z,2.53
2019-03-28T21:59:21.031Z,3.13
2019-03-28T22:01:51.570Z,3.30
2019-03-28T22:04:21.786Z,3.40
2019-03-28T22:06:52.149Z,2.80
2019-03-28T22:09:22.323Z,2.90
2019-03-28T22:11:52.182Z,3.10
2019-03-28T22:14:22.462Z,3.17
2019-03-28T22:16:52.758Z,3.30
2019-03-28T22:19:23.278Z,3.27
2019-03-28T22:21:53.645Z,2.90
2019-03-28T22:24:23.982Z,3.40
2019-03-28T22:26:54.236Z,3.50
2019-03-28T22:29:24.547Z,3.80
2019-03-28T22:31:54.761Z,3.07
2019-03-28T22:34:25.095Z,3.50
2019-03-28T22:36:57.699Z,3.23
2019-03-28T22:39:27.744Z,2.80
2019-03-28T22:41:57.961Z,2.33
2019-03-28T22:44:28.281Z,2.80
2019-03-28T22:46:58.532Z,2.80
2019-03-28T22:49:28.887Z,2.80
2019-03-28T22:51:59.376Z,2.87
2019-03-28T22:54:29.544Z,3.10
2019-03-28T22:57:00.082Z,2.97
2019-03-28T22:59:30.361Z,2.87
2019-03-28T23:02:00.711Z,3.17
2019-03-28T23:04:31.051Z,2.90
2019-03-28T23:07:11.003Z,2.53
2019-03-28T23:09:33.573Z,2.93
2019-03-28T23:12:03.919Z,2.90
2019-03-28T23:14:34.338Z,2.80
2019-03-28T23:17:04.585Z,3.10
2019-03-28T23:19:35.153Z,3.10
2019-03-28T23:22:05.586Z,3.23
